createdAt,value
2022-12-24T00:02:20.465Z,10.75
2022-12-24T00:04:49.559Z,11.15
2022-12-24T00:07:19.244Z,10.13
2022-12-24T00:09:49.036Z,11.10
2022-12-24T00:12:19.002Z,10.40
2022-12-24T00:14:48.882Z,11.30
2022-12-24T00:17:18.662Z,11.88
2022-12-24T00:19:48.501Z,11.70
2022-12-24T00:22:18.278Z,10.75
2022-12-24T00:24:48.113Z,10.88
2022-12-24T00:27:18.087Z,9.68
2022-12-24T00:29:48.188Z,10.18
2022-12-24T00:32:17.822Z,10.13
2022-12-24T00:34:47.534Z,9.07
2022-12-24T00:37:17.364Z,9.88
2022-12-24T00:39:47.136Z,9.07
2022-12-24T00:42:17.064Z,8.38
2022-12-24T00:44:47.037Z,8.68
2022-12-24T00:47:16.790Z,8.60
2022-12-24T00:49:47.122Z,7.78
2022-12-24T00:52:16.671Z,8.07
2022-12-24T00:54:46.460Z,7.40
2022-12-24T00:57:16.188Z,7.13
2022-12-24T00:59:45.951Z,6.88
2022-12-24T01:02:16.074Z,7.95
2022-12-24T01:05:04.653Z,6.75
2022-12-24T01:07:34.948Z,6.53
2022-12-24T01:10:07.554Z,7.70
2022-12-24T01:12:37.412Z,6.38
2022-12-24T01:15:08.047Z,6.43
2022-12-24T01:17:38.109Z,6.85
2022-12-24T01:20:16.229Z,6.43
2022-12-24T01:22:44.848Z,7.55
2022-12-24T01:25:15.136Z,6.68
2022-12-24T01:27:44.546Z,7.35
2022-12-24T01:30:15.785Z,6.78
2022-12-24T01:32:45.796Z,7.55
2022-12-24T01:35:15.557Z,7.75
2022-12-24T01:37:45.285Z,6.97
2022-12-24T01:40:36.608Z,6.90
2022-12-24T01:43:23.444Z,6.78
2022-12-24T01:46:35.005Z,6.97
2022-12-24T01:49:07.104Z,7.47
2022-12-24T01:51:54.615Z,8.38
2022-12-24T01:54:42.845Z,7.90
2022-12-24T01:57:27.922Z,7.20
2022-12-24T02:00:07.650Z,7.72
2022-12-24T02:02:44.483Z,8.10
2022-12-24T02:05:29.860Z,8.05
2022-12-24T02:08:04.830Z,7.78
2022-12-24T02:10:34.885Z,7.85
2022-12-24T02:13:04.920Z,8.68
2022-12-24T02:16:17.028Z,8.60
2022-12-24T02:19:27.596Z,8.80
2022-12-24T02:26:08.635Z,8.27
2022-12-24T02:29:32.569Z,9.43
2022-12-24T02:32:21.820Z,8.82
2022-12-24T02:37:41.575Z,9.50
2022-12-24T02:40:23.599Z,9.68
2022-12-24T02:43:11.385Z,10.00
2022-12-24T02:46:02.181Z,10.00
2022-12-24T02:48:34.925Z,10.32
2022-12-24T02:51:10.247Z,9.30
2022-12-24T02:53:41.557Z,11.68
2022-12-24T02:56:33.679Z,10.73
2022-12-24T02:59:28.912Z,11.07
2022-12-24T03:02:28.990Z,10.38
2022-12-24T03:05:57.688Z,11.23
2022-12-24T03:09:03.463Z,11.30
2022-12-24T03:11:35.228Z,11.45
2022-12-24T03:14:04.709Z,11.70
2022-12-24T03:16:34.872Z,11.38
2022-12-24T03:19:05.933Z,12.15
2022-12-24T03:21:42.680Z,10.95
2022-12-24T03:24:12.255Z,11.07
2022-12-24T03:26:46.009Z,10.68
2022-12-24T03:29:14.124Z,10.95
2022-12-24T03:31:52.360Z,11.52
2022-12-24T03:34:20.765Z,10.65
2022-12-24T03:36:51.355Z,12.23
2022-12-24T03:39:20.136Z,12.63
2022-12-24T03:41:50.094Z,11.57
2022-12-24T03:44:19.757Z,11.70
2022-12-24T03:46:49.561Z,12.13
2022-12-24T03:49:19.515Z,11.07
2022-12-24T03:51:49.271Z,12.30
2022-12-24T03:54:19.152Z,12.23
2022-12-24T03:56:48.941Z,12.38
2022-12-24T03:59:17.279Z,12.40
2022-12-24T04:01:45.840Z,11.65
2022-12-24T04:04:14.155Z,13.10
2022-12-24T04:06:43.326Z,12.85
2022-12-24T04:09:10.957Z,13.57
2022-12-24T04:11:39.515Z,12.98
2022-12-24T04:14:07.806Z,12.52
2022-12-24T04:16:36.301Z,13.02
2022-12-24T04:19:04.635Z,13.35
2022-12-24T04:21:33.106Z,13.07
2022-12-24T04:24:01.514Z,15.70
2022-12-24T04:26:29.904Z,15.32
2022-12-24T04:28:58.555Z,14.43
2022-12-24T04:31:26.777Z,13.93
2022-12-24T04:33:55.248Z,14.88
2022-12-24T04:36:24.321Z,14.63
2022-12-24T04:38:51.985Z,15.13
2022-12-24T04:41:25.118Z,15.35
2022-12-24T04:43:56.116Z,15.80
2022-12-24T04:46:33.105Z,15.95
2022-12-24T04:49:02.751Z,15.13
2022-12-24T04:51:32.724Z,15.10
2022-12-24T04:54:02.776Z,16.10
2022-12-24T04:56:33.849Z,15.23
2022-12-24T04:59:03.559Z,15.93
2022-12-24T05:01:33.990Z,14.98
2022-12-24T05:04:03.977Z,16.80
2022-12-24T05:06:33.963Z,16.00
2022-12-24T05:09:04.295Z,15.73
2022-12-24T05:11:34.009Z,16.25
2022-12-24T05:14:04.097Z,15.30
2022-12-24T05:16:33.891Z,16.65
2022-12-24T05:19:03.993Z,15.73
2022-12-24T05:21:33.691Z,16.40
2022-12-24T05:24:21.994Z,15.60
2022-12-24T05:26:58.928Z,15.80
2022-12-24T05:29:26.142Z,17.00
2022-12-24T05:31:54.483Z,15.13
2022-12-24T05:34:22.932Z,15.90
2022-12-24T05:36:52.462Z,15.52
2022-12-24T05:39:19.750Z,17.13
2022-12-24T05:41:48.391Z,16.67
2022-12-24T05:44:17.131Z,15.30
2022-12-24T05:46:46.016Z,16.10
2022-12-24T05:49:14.518Z,15.65
2022-12-24T05:51:42.586Z,17.88
2022-12-24T05:54:11.627Z,17.17
2022-12-24T05:56:39.870Z,15.85
2022-12-24T05:59:07.498Z,15.85
2022-12-24T06:01:36.052Z,15.70
2022-12-24T06:04:04.579Z,16.08
2022-12-24T06:06:33.151Z,15.38
2022-12-24T06:09:01.162Z,15.18
2022-12-24T06:11:30.456Z,17.38
2022-12-24T06:13:58.057Z,16.20
2022-12-24T06:16:27.648Z,15.10
2022-12-24T06:18:57.865Z,16.23
2022-12-24T06:21:26.265Z,15.68
2022-12-24T06:23:54.693Z,15.10
2022-12-24T06:26:23.894Z,15.63
2022-12-24T06:28:52.447Z,14.73
2022-12-24T06:31:24.337Z,16.73
2022-12-24T06:33:53.741Z,16.25
2022-12-24T06:36:25.905Z,14.60
2022-12-24T06:38:55.808Z,14.48
2022-12-24T06:41:25.376Z,14.68
2022-12-24T06:43:55.497Z,15.88
2022-12-24T06:46:25.314Z,17.90
2022-12-24T06:48:55.212Z,15.52
2022-12-24T06:51:25.203Z,15.75
2022-12-24T06:53:55.117Z,15.93
2022-12-24T06:56:25.238Z,16.08
2022-12-24T06:58:58.749Z,16.35
2022-12-24T07:01:31.749Z,16.90
2022-12-24T07:04:01.712Z,15.10
2022-12-24T07:06:31.786Z,16.02
2022-12-24T07:09:00.819Z,14.15
2022-12-24T07:11:30.754Z,14.68
2022-12-24T07:14:00.703Z,15.52
2022-12-24T07:16:31.096Z,16.23
2022-12-24T07:19:00.528Z,15.55
2022-12-24T07:21:30.303Z,16.33
2022-12-24T07:24:00.074Z,15.32
2022-12-24T07:26:29.761Z,15.57
2022-12-24T07:28:59.530Z,13.98
2022-12-24T07:31:29.389Z,15.23
2022-12-24T07:33:59.385Z,16.27
2022-12-24T07:36:28.999Z,15.35
2022-12-24T07:38:58.898Z,14.85
2022-12-24T07:41:26.247Z,16.33
2022-12-24T07:43:56.044Z,15.52
2022-12-24T07:46:24.622Z,15.38
2022-12-24T07:48:53.042Z,15.77
2022-12-24T07:51:21.840Z,14.30
2022-12-24T07:53:50.219Z,15.75
2022-12-24T07:56:18.698Z,15.77
2022-12-24T07:58:47.154Z,14.88
2022-12-24T08:01:15.511Z,14.95
2022-12-24T08:03:45.470Z,14.23
2022-12-24T08:06:15.320Z,17.30
2022-12-24T08:08:43.846Z,17.38
2022-12-24T08:11:13.250Z,16.98
2022-12-24T08:13:40.953Z,18.00
2022-12-24T08:16:09.474Z,17.67
2022-12-24T08:18:37.923Z,18.85
2022-12-24T08:21:10.063Z,15.70
2022-12-24T08:23:40.176Z,16.05
2022-12-24T08:26:12.732Z,16.38
2022-12-24T08:28:42.880Z,17.55
2022-12-24T08:31:13.060Z,17.67
2022-12-24T08:33:43.196Z,17.23
2022-12-24T08:36:11.636Z,16.92
2022-12-24T08:38:40.092Z,18.00
2022-12-24T08:41:08.542Z,17.17
2022-12-24T08:43:36.873Z,17.98
2022-12-24T08:46:06.884Z,17.95
2022-12-24T08:48:37.671Z,16.23
2022-12-24T08:51:12.379Z,16.45
2022-12-24T08:53:42.935Z,16.83
2022-12-24T08:56:14.121Z,16.13
2022-12-24T08:58:44.205Z,16.13
2022-12-24T09:01:19.717Z,16.83
2022-12-24T09:03:49.991Z,17.10
2022-12-24T09:06:20.139Z,16.95
2022-12-24T09:08:50.335Z,17.02
2022-12-24T09:11:20.737Z,16.35
2022-12-24T09:13:49.021Z,18.23
2022-12-24T09:16:19.016Z,17.65
2022-12-24T09:18:49.155Z,16.63
2022-12-24T09:21:18.914Z,16.02
2022-12-24T09:23:49.169Z,16.77
2022-12-24T09:26:24.897Z,16.42
2022-12-24T09:28:54.167Z,15.95
2022-12-24T09:31:24.272Z,15.63
2022-12-24T09:33:54.427Z,14.52
2022-12-24T09:36:24.592Z,14.57
2022-12-24T09:38:54.262Z,13.98
2022-12-24T09:42:15.673Z,14.55
2022-12-24T09:45:01.727Z,14.52
2022-12-24T09:47:51.851Z,13.63
2022-12-24T09:50:59.777Z,12.07
2022-12-24T09:54:02.572Z,10.48
2022-12-24T09:56:44.768Z,9.95
2022-12-24T09:59:39.177Z,9.38
2022-12-24T10:02:18.474Z,9.93
2022-12-24T10:04:49.454Z,10.43
2022-12-24T10:07:50.192Z,10.93
2022-12-24T10:11:03.094Z,10.27
2022-12-24T10:14:27.176Z,9.98
2022-12-24T10:18:11.091Z,10.30
2022-12-24T10:21:11.419Z,10.80
2022-12-24T10:23:59.695Z,9.73
2022-12-24T10:27:15.063Z,9.17
2022-12-24T10:30:04.577Z,8.70
2022-12-24T10:32:35.850Z,8.25
2022-12-24T10:35:32.355Z,8.27
2022-12-24T10:38:04.429Z,7.50
2022-12-24T10:40:48.565Z,6.93
2022-12-24T10:43:23.634Z,6.18
2022-12-24T10:46:07.179Z,6.32
2022-12-24T10:49:03.840Z,6.32
2022-12-24T10:52:10.171Z,5.13
2022-12-24T10:55:24.409Z,4.85
2022-12-24T10:58:15.800Z,4.68
2022-12-24T11:00:55.108Z,4.55
2022-12-24T11:03:39.915Z,4.30
2022-12-24T11:06:23.366Z,4.20
2022-12-24T11:08:53.368Z,3.80
2022-12-24T11:11:24.183Z,3.42
2022-12-24T11:13:58.863Z,3.28
2022-12-24T11:16:35.780Z,3.30
2022-12-24T11:19:18.564Z,3.88
2022-12-24T11:21:46.579Z,3.25
2022-12-24T11:24:28.096Z,3.17
2022-12-24T11:27:32.364Z,3.55
2022-12-24T11:30:16.310Z,3.05
2022-12-24T11:33:10.569Z,3.47
2022-12-24T11:35:51.971Z,3.80
2022-12-24T11:38:27.769Z,3.70
2022-12-24T11:41:11.636Z,3.58
2022-12-24T11:43:51.925Z,4.28
2022-12-24T11:46:46.409Z,4.10
2022-12-24T11:49:29.700Z,3.83
2022-12-24T11:52:24.504Z,4.68
2022-12-24T11:55:41.344Z,5.15
2022-12-24T11:58:47.996Z,5.85
2022-12-24T12:02:01.688Z,6.22
2022-12-24T12:04:40.630Z,6.45
2022-12-24T12:07:30.493Z,5.88
2022-12-24T12:10:30.282Z,6.15
2022-12-24T12:13:16.423Z,6.22
2022-12-24T12:16:20.936Z,5.88
2022-12-24T12:19:08.710Z,5.97
2022-12-24T12:21:50.548Z,7.05
2022-12-24T12:24:37.922Z,6.05
2022-12-24T12:27:32.619Z,6.38
2022-12-24T12:30:20.943Z,6.03
2022-12-24T12:33:13.642Z,5.87
2022-12-24T12:35:45.861Z,6.03
2022-12-24T12:38:24.951Z,6.68
2022-12-24T12:41:45.469Z,5.53
2022-12-24T12:44:56.738Z,6.03
2022-12-24T12:48:37.613Z,5.25
2022-12-24T12:51:36.719Z,6.55
2022-12-24T12:54:32.662Z,5.53
2022-12-24T12:57:17.123Z,6.50
2022-12-24T13:00:01.622Z,7.28
2022-12-24T13:03:21.262Z,5.63
2022-12-24T13:06:30.993Z,6.03
2022-12-24T13:10:16.526Z,5.87
2022-12-24T13:13:16.885Z,6.20
2022-12-24T13:16:38.984Z,6.45
2022-12-24T13:19:51.681Z,7.30
2022-12-24T13:22:23.677Z,5.78
2022-12-24T13:24:57.068Z,6.70
2022-12-24T13:27:34.558Z,6.53
2022-12-24T13:30:36.096Z,6.15
2022-12-24T13:33:14.076Z,6.45
2022-12-24T13:36:08.771Z,5.75
2022-12-24T13:38:57.304Z,6.57
2022-12-24T13:41:40.688Z,7.78
2022-12-24T13:44:19.326Z,5.75
2022-12-24T13:47:14.953Z,7.53
2022-12-24T13:49:52.569Z,6.28
2022-12-24T13:52:32.875Z,6.10
2022-12-24T13:55:17.623Z,6.72
2022-12-24T13:58:01.623Z,5.65
2022-12-24T14:00:56.945Z,4.95
2022-12-24T14:04:00.489Z,5.50
2022-12-24T14:06:40.838Z,4.38
2022-12-24T14:09:21.624Z,4.80
2022-12-24T14:11:57.629Z,4.80
2022-12-24T14:14:32.224Z,4.60
2022-12-24T14:17:29.860Z,5.28
2022-12-24T14:20:02.501Z,5.18
2022-12-24T14:22:44.177Z,5.95
2022-12-24T14:25:24.905Z,5.30
2022-12-24T14:28:06.582Z,6.07
2022-12-24T14:30:35.605Z,5.68
2022-12-24T14:33:05.342Z,5.47
2022-12-24T14:35:40.679Z,5.30
2022-12-24T14:38:22.967Z,5.18
2022-12-24T14:41:44.071Z,5.35
2022-12-24T14:45:02.080Z,7.18
2022-12-24T14:48:26.957Z,5.57
2022-12-24T14:51:27.983Z,8.02
2022-12-24T14:54:21.992Z,4.70
2022-12-24T14:57:21.637Z,6.32
2022-12-24T15:00:00.022Z,4.38
2022-12-24T15:02:51.839Z,6.18
2022-12-24T15:05:30.079Z,5.22
2022-12-24T15:08:10.094Z,5.80
2022-12-24T15:10:50.121Z,6.80
2022-12-24T15:13:26.282Z,5.85
2022-12-24T15:15:58.207Z,5.45
2022-12-24T15:18:36.545Z,6.93
2022-12-24T15:21:20.923Z,6.22
2022-12-24T15:23:52.582Z,5.40
2022-12-24T15:26:35.019Z,5.05
2022-12-24T15:29:28.752Z,6.40
2022-12-24T15:32:05.061Z,5.13
2022-12-24T15:34:44.124Z,5.88
2022-12-24T15:37:21.790Z,5.00
2022-12-24T15:40:22.496Z,5.47
2022-12-24T15:42:53.742Z,6.22
2022-12-24T15:45:34.492Z,5.53
2022-12-24T15:48:17.515Z,5.40
2022-12-24T15:50:54.726Z,5.93
2022-12-24T15:53:45.425Z,6.30
2022-12-24T15:56:34.895Z,6.60
2022-12-24T15:59:32.064Z,6.93
2022-12-24T16:02:34.778Z,5.88
2022-12-24T16:05:35.933Z,5.63
2022-12-24T16:08:15.129Z,5.93
2022-12-24T16:11:05.986Z,6.20
2022-12-24T16:14:14.456Z,4.97
2022-12-24T16:16:52.891Z,7.10
2022-12-24T16:19:39.404Z,6.90
2022-12-24T16:22:32.536Z,5.57
2022-12-24T16:25:26.316Z,5.40
2022-12-24T16:28:00.661Z,6.65
2022-12-24T16:30:30.844Z,7.65
2022-12-24T16:33:02.083Z,8.02
2022-12-24T16:35:34.378Z,8.90
2022-12-24T16:38:05.427Z,8.23
2022-12-24T16:40:35.468Z,9.20
2022-12-24T16:43:24.066Z,8.82
2022-12-24T16:46:01.252Z,11.38
2022-12-24T16:48:36.354Z,7.88
2022-12-24T16:51:06.524Z,8.32
2022-12-24T16:53:36.558Z,8.00
2022-12-24T16:56:07.187Z,9.07
2022-12-24T16:58:38.426Z,10.27
2022-12-24T17:01:10.092Z,8.63
2022-12-24T17:03:40.401Z,8.02
2022-12-24T17:06:10.448Z,10.00
2022-12-24T17:08:40.450Z,8.52
2022-12-24T17:11:10.534Z,9.82
2022-12-24T17:13:40.603Z,11.07
2022-12-24T17:16:10.722Z,9.10
2022-12-24T17:18:40.810Z,8.65
2022-12-24T17:21:11.139Z,7.60
2022-12-24T17:23:42.084Z,8.27
2022-12-24T17:26:15.433Z,9.40
2022-12-24T17:28:45.516Z,8.00
2022-12-24T17:31:16.941Z,11.40
2022-12-24T17:33:50.886Z,10.30
2022-12-24T17:36:21.311Z,13.68
2022-12-24T17:38:49.432Z,15.10
2022-12-24T17:41:21.463Z,14.68
2022-12-24T17:43:50.398Z,11.98
2022-12-24T17:46:24.029Z,9.43
2022-12-24T17:48:55.825Z,9.48
2022-12-24T17:51:26.276Z,16.08
2022-12-24T17:53:56.371Z,9.38
2022-12-24T17:56:27.781Z,9.32
2022-12-24T17:58:58.924Z,8.50
2022-12-24T18:01:30.572Z,7.60
2022-12-24T18:04:03.811Z,9.05
2022-12-24T18:06:34.483Z,7.47
2022-12-24T18:09:05.072Z,8.00
2022-12-24T18:11:37.800Z,7.70
2022-12-24T18:14:08.314Z,8.45
2022-12-24T18:16:44.571Z,7.72
2022-12-24T18:19:14.714Z,7.45
2022-12-24T18:21:43.206Z,7.75
2022-12-24T18:24:13.300Z,8.25
2022-12-24T18:26:45.886Z,6.10
2022-12-24T18:29:18.094Z,7.72
2022-12-24T18:31:48.279Z,6.90
2022-12-24T18:34:18.469Z,8.20
2022-12-24T18:36:52.861Z,6.55
2022-12-24T18:39:25.453Z,7.00
2022-12-24T18:41:55.468Z,6.38
2022-12-24T18:44:25.918Z,5.95
2022-12-24T18:46:56.087Z,11.95
2022-12-24T18:49:26.213Z,7.10
2022-12-24T18:51:56.262Z,6.80
2022-12-24T18:54:26.287Z,6.35
2022-12-24T18:56:56.538Z,7.32
2022-12-24T18:59:26.615Z,7.80
2022-12-24T19:01:56.870Z,9.50
2022-12-24T19:04:27.043Z,11.73
2022-12-24T19:06:57.228Z,9.82
2022-12-24T19:09:27.298Z,6.28
2022-12-24T19:11:57.967Z,12.30
2022-12-24T19:14:28.003Z,9.07
2022-12-24T19:16:58.040Z,6.53
2022-12-24T19:19:28.212Z,7.05
2022-12-24T19:21:58.290Z,5.60
2022-12-24T19:24:28.403Z,7.60
2022-12-24T19:26:58.729Z,11.55
2022-12-24T19:29:28.716Z,5.63
2022-12-24T19:31:58.888Z,5.20
2022-12-24T19:34:29.294Z,4.30
2022-12-24T19:36:59.316Z,4.40
2022-12-24T19:39:32.100Z,4.82
2022-12-24T19:42:03.628Z,4.43
2022-12-24T19:44:33.629Z,4.35
2022-12-24T19:47:03.890Z,3.90
2022-12-24T19:49:33.918Z,4.00
2022-12-24T19:52:04.194Z,5.07
2022-12-24T19:54:34.277Z,4.47
2022-12-24T19:57:04.333Z,4.40
2022-12-24T19:59:35.161Z,5.15
2022-12-24T20:02:05.580Z,5.57
2022-12-24T20:04:35.670Z,6.00
2022-12-24T20:07:05.909Z,5.30
2022-12-24T20:09:37.089Z,5.00
2022-12-24T20:12:11.803Z,5.80
2022-12-24T20:14:42.341Z,5.55
2022-12-24T20:17:14.121Z,5.43
2022-12-24T20:19:44.185Z,5.55
2022-12-24T20:22:14.239Z,4.78
2022-12-24T20:24:44.287Z,4.60
2022-12-24T20:27:14.678Z,4.22
2022-12-24T20:29:44.803Z,4.35
2022-12-24T20:32:14.890Z,3.10
2022-12-24T20:34:44.934Z,3.33
2022-12-24T20:37:14.657Z,3.60
2022-12-24T20:39:44.678Z,3.20
2022-12-24T20:42:17.967Z,3.33
2022-12-24T20:44:49.667Z,3.65
2022-12-24T20:47:19.513Z,3.47
2022-12-24T20:49:49.572Z,4.22
2022-12-24T20:52:19.065Z,3.35
2022-12-24T20:54:49.732Z,5.63
2022-12-24T20:57:25.880Z,9.13
2022-12-24T20:59:57.099Z,13.55
2022-12-24T21:02:27.010Z,7.15
2022-12-24T21:05:01.990Z,6.20
2022-12-24T21:07:32.361Z,4.13
2022-12-24T21:10:01.248Z,4.88
2022-12-24T21:12:47.949Z,5.68
2022-12-24T21:15:25.938Z,4.60
2022-12-24T21:17:55.350Z,4.80
2022-12-24T21:20:30.810Z,4.70
2022-12-24T21:23:03.193Z,7.45
2022-12-24T21:25:31.227Z,4.80
2022-12-24T21:28:02.540Z,4.32
2022-12-24T21:30:32.301Z,4.22
2022-12-24T21:33:02.334Z,4.47
2022-12-24T21:35:32.051Z,3.50
2022-12-24T21:38:01.812Z,4.57
2022-12-24T21:40:31.570Z,4.82
2022-12-24T21:43:01.429Z,4.10
2022-12-24T21:45:31.731Z,5.28
2022-12-24T21:48:21.286Z,5.03
2022-12-24T21:50:57.902Z,4.95
2022-12-24T21:53:46.470Z,4.97
2022-12-24T21:56:16.293Z,4.97
2022-12-24T21:58:46.069Z,5.18
2022-12-24T22:01:16.540Z,4.95
2022-12-24T22:03:49.711Z,5.57
2022-12-24T22:06:38.299Z,4.38
2022-12-24T22:09:29.454Z,4.47
2022-12-24T22:11:59.634Z,5.72
2022-12-24T22:14:28.018Z,4.82
2022-12-24T22:16:56.333Z,5.22
2022-12-24T22:19:24.757Z,4.90
2022-12-24T22:21:53.123Z,5.13
2022-12-24T22:24:21.745Z,5.82
2022-12-24T22:26:49.946Z,5.82
2022-12-24T22:29:18.585Z,5.40
2022-12-24T22:31:46.924Z,5.88
2022-12-24T22:34:15.273Z,20.02
2022-12-24T22:36:43.679Z,9.57
2022-12-24T22:39:12.186Z,9.20
2022-12-24T22:41:40.465Z,6.43
2022-12-24T22:44:10.009Z,6.55
2022-12-24T22:46:37.383Z,7.10
2022-12-24T22:49:05.728Z,9.82
2022-12-24T22:51:34.139Z,6.93
2022-12-24T22:54:02.556Z,7.38
2022-12-24T22:56:35.532Z,6.53
2022-12-24T22:59:14.044Z,6.28
2022-12-24T23:01:47.899Z,7.05
2022-12-24T23:04:17.013Z,6.90
2022-12-24T23:06:47.164Z,6.60
2022-12-24T23:09:17.992Z,7.78
2022-12-24T23:11:48.124Z,6.97
2022-12-24T23:14:40.492Z,6.32
2022-12-24T23:17:10.103Z,5.88
2022-12-24T23:19:39.695Z,7.22
2022-12-24T23:22:11.789Z,6.55
2022-12-24T23:24:41.391Z,6.82
2022-12-24T23:27:11.236Z,6.93
2022-12-24T23:29:41.061Z,7.00
2022-12-24T23:32:10.763Z,7.45
2022-12-24T23:34:40.437Z,6.75
2022-12-24T23:37:10.302Z,6.30
2022-12-24T23:39:40.241Z,6.78
2022-12-24T23:42:15.379Z,5.68
2022-12-24T23:44:44.868Z,5.22
2022-12-24T23:47:14.885Z,4.95
2022-12-24T23:49:43.116Z,4.90
2022-12-24T23:52:11.481Z,4.82
2022-12-24T23:54:39.933Z,4.90
2022-12-24T23:57:08.276Z,5.00
2022-12-24T23:59:36.782Z,4.35
